Aviation Digital Data Service (ADDS)

Output produced by METARs form (1138 UTC 22 September 2017)
found at http://aviationweather.gov/adds/metars/
 
KBPT 221123Z 2212/2312 VRB04KT P6SM SCT200 
     FM221500 12005KT P6SM VCSH SCT020 
     FM221800 15006KT P6SM VCTS SCT035CB 
     FM230000 VRB04KT P6SM SCT250